Warning: Javascript must be enabled to use all the features on this page!


Page Loading - Please Wait...

Click to hideNews Bulletins

Peak Streamflow for the Nation

USGS 07231000 Little River near Sasakwa, OK

Seminole County, Oklahoma
Hydrologic Unit Code 11090203
Latitude  34°57'55", Longitude  96°30'44" NAD27
Drainage area 888  square miles
Contributing drainage area 888  square miles
Gage datum 731.78 feet above NAVD88
Output formats
Table
Graph
Tab-separated file
peakfq (watstore) format
Reselect output format
Water
Year
Date Gage
Height
(feet)
Stream-
flow
(cfs)
1939 1939-06 31.20Bd 33,0007,Bd
1943 1943-05-11 30.80 27,100
1944 1944-05-28 25.54 11,700
1945 1945-04-15 32.50 39,000
1946 1945-10-01 27.50 16,000
1947 1947-06-02 26.60 14,800
1948 1948-06-24 30.63 28,000
1949 1949-05-19 30.80 29,800
1950 1950-05-11 33.48 44,600
1951 1951-05-20 19.40 4,770
1952 1952-04-23 22.88 8,150
1953 1953-07-21 26.41 15,400
1954 1954-05-02 25.20 12,200
1955 1955-05-21 24.29 10,200
1956 1955-10-07 13.51 2,630
1957 1957-05-18 29.80 26,500
1958 1958-08-21 28.24 23,100
1959 1959-05-10 22.10 9,420
1960 1959-10-04 26.70 18,600
1961 1961-03-30 16.74 6,000
1962 1962-04-23 11.70 3,120
1963 1963-04-27 17.38 7,250
1964 1964-05-11 16.56 6,610
1965 1964-11-19 16.48 6,530
1966 1966-08-31 8.66 1,8605
1967 1967-04-13 20.52 10,1005
1968 1968-05-14 25.89 15,8005
1969 1969-05-17 14.27 3,9405
1970 1970-09-23 18.40 7,9505
1971 1970-10-09 24.40 15,6005
1972 1971-12-10 12.89 3,9105
1973 1973-04-22 20.35 9,1505
1974 1974-04-30 22.84 10,9005
1975 1975-05-14 18.50 7,4805
1976 1976-04-20 13.66 4,2005
1977 1977-05-22 14.18 4,7205
1978 1978-05-28 16.17 5,6806
1979 1979-06-10 27.14 11,1006
1980 1979-11-21 16.08 3,1306
1981 1981-07-01 9.84 8596
1982 1982-05-12 21.90 6,6506
1983 1983-02-01 21.30 6,2806
1984 1983-10-23 25.26 8,8806
1985 1985-05-01 31.73 18,5006
1986 1985-10-18 21.49 6,4006
1987 1987-05-29 23.56 7,7206
1988 1988-04-03 23.62 7,7606
1989 1989-08-16 22.40 7,4706
1990 1990-04-27 29.96 16,4006
1991 1991-06-08 18.18 4,9506
1992 1992-05-11 24.24 8,7806
1993 1992-11-12 29.53 15,4006
1994 1994-03-09 18.16 4,9106
1995 1995-05-09 23.41 8,2006
1996 1996-04-22 16.66 6,4606
1997 1997-02-20 18.83 8,8506
1998 1998-04-27 24.56 12,7006
1999 1999-04-27 26.77 15,6006
2000 2000-06-26 16.67 5,7606
2001 2001-01-29 17.84 6,5806
2002 2002-04-08 16.26 5,6306
2003 2003-08-31 10.40 2,5606
2004 2004-03-05 12.18 3,1106
2005 2005-01-03 17.72 6,5006
2006 2006-04-30 5.94 3836
2007 2007-06-28 26.54 14,7006
2008 2008-06-09 23.44 11,5006
2009 2009-05-02 15.53 5,4306
2010 2009-10-09 19.58 8,3706
2011 2011-04-25 10.83 2,7206
2012 2012-03-20 16.44 7,3106
2013 2013-05-21 20.84 12,2006
2014 2014-07-18 14.81 5,1006
2015 2015-06-19 31.67 21,9006
2016 2015-12-28 25.55 14,4006
2017 2017-05-20 26.11 15,1006
2018 2018-02-24 16.71 6,2406
2019 2019-01-04 15.64 5,4606
2020 2020-03-19 24.08 12,9006
2021 2021-04-28 26.75 14,6006
?
  Peak Gage-Height Qualification Codes.
?
  Peak Streamflow Qualification Codes.